sensor_id;sensor_type;location;lat;lon;timestamp;P1;durP1;ratioP1;P2;durP2;ratioP2
12122;SDS011;6125;59.628;17.852;2023-03-02T00:01:41;0.50;;;0.50;;
12122;SDS011;6125;59.628;17.852;2023-03-02T00:04:11;0.70;;;0.70;;
12122;SDS011;6125;59.628;17.852;2023-03-02T00:06:42;0.43;;;0.43;;
12122;SDS011;6125;59.628;17.852;2023-03-02T00:09:09;0.70;;;0.70;;
12122;SDS011;6125;59.628;17.852;2023-03-02T00:11:38;0.60;;;0.60;;
12122;SDS011;6125;59.628;17.852;2023-03-02T00:14:05;0.53;;;0.50;;
12122;SDS011;6125;59.628;17.852;2023-03-02T00:16:32;0.50;;;0.50;;
12122;SDS011;6125;59.628;17.852;2023-03-02T00:18:59;0.87;;;0.63;;
12122;SDS011;6125;59.628;17.852;2023-03-02T00:21:26;0.87;;;0.60;;
12122;SDS011;6125;59.628;17.852;2023-03-02T00:23:53;0.40;;;0.40;;
12122;SDS011;6125;59.628;17.852;2023-03-02T00:26:20;0.50;;;0.50;;
12122;SDS011;6125;59.628;17.852;2023-03-02T00:28:49;1.00;;;0.70;;
12122;SDS011;6125;59.628;17.852;2023-03-02T00:31:16;0.90;;;0.50;;
12122;SDS011;6125;59.628;17.852;2023-03-02T00:33:43;0.73;;;0.50;;
12122;SDS011;6125;59.628;17.852;2023-03-02T00:36:14;0.60;;;0.60;;
12122;SDS011;6125;59.628;17.852;2023-03-02T00:38:41;0.50;;;0.50;;
12122;SDS011;6125;59.628;17.852;2023-03-02T00:41:09;0.80;;;0.60;;
12122;SDS011;6125;59.628;17.852;2023-03-02T00:43:37;0.50;;;0.50;;
12122;SDS011;6125;59.628;17.852;2023-03-02T00:46:09;0.83;;;0.40;;
12122;SDS011;6125;59.628;17.852;2023-03-02T00:48:37;0.50;;;0.50;;
12122;SDS011;6125;59.628;17.852;2023-03-02T00:51:04;0.50;;;0.50;;
12122;SDS011;6125;59.628;17.852;2023-03-02T00:53:32;0.60;;;0.60;;
12122;SDS011;6125;59.628;17.852;2023-03-02T00:56:00;0.40;;;0.40;;
12122;SDS011;6125;59.628;17.852;2023-03-02T00:58:36;1.03;;;0.33;;
12122;SDS011;6125;59.628;17.852;2023-03-02T01:01:04;1.20;;;0.50;;
12122;SDS011;6125;59.628;17.852;2023-03-02T01:03:34;0.60;;;0.60;;
12122;SDS011;6125;59.628;17.852;2023-03-02T01:06:02;0.30;;;0.30;;
12122;SDS011;6125;59.628;17.852;2023-03-02T01:08:30;0.53;;;0.43;;
12122;SDS011;6125;59.628;17.852;2023-03-02T01:10:57;0.40;;;0.40;;
12122;SDS011;6125;59.628;17.852;2023-03-02T01:13:25;0.70;;;0.70;;
12122;SDS011;6125;59.628;17.852;2023-03-02T01:15:58;1.50;;;0.80;;
12122;SDS011;6125;59.628;17.852;2023-03-02T01:18:26;0.50;;;0.50;;
12122;SDS011;6125;59.628;17.852;2023-03-02T01:21:00;1.07;;;0.60;;
12122;SDS011;6125;59.628;17.852;2023-03-02T01:23:28;0.50;;;0.50;;
12122;SDS011;6125;59.628;17.852;2023-03-02T01:25:55;0.57;;;0.57;;
12122;SDS011;6125;59.628;17.852;2023-03-02T01:28:22;1.57;;;0.70;;
12122;SDS011;6125;59.628;17.852;2023-03-02T01:30:49;0.73;;;0.70;;
12122;SDS011;6125;59.628;17.852;2023-03-02T01:33:16;1.17;;;0.70;;
12122;SDS011;6125;59.628;17.852;2023-03-02T01:35:43;0.67;;;0.60;;
12122;SDS011;6125;59.628;17.852;2023-03-02T01:38:12;0.40;;;0.40;;
12122;SDS011;6125;59.628;17.852;2023-03-02T01:40:39;1.90;;;0.50;;
12122;SDS011;6125;59.628;17.852;2023-03-02T01:43:10;0.50;;;0.50;;
12122;SDS011;6125;59.628;17.852;2023-03-02T01:45:43;0.63;;;0.50;;
12122;SDS011;6125;59.628;17.852;2023-03-02T01:48:13;0.40;;;0.40;;
12122;SDS011;6125;59.628;17.852;2023-03-02T01:50:43;0.50;;;0.50;;
12122;SDS011;6125;59.628;17.852;2023-03-02T01:53:10;0.63;;;0.63;;
12122;SDS011;6125;59.628;17.852;2023-03-02T01:55:40;0.40;;;0.40;;
12122;SDS011;6125;59.628;17.852;2023-03-02T01:58:10;1.50;;;0.70;;
12122;SDS011;6125;59.628;17.852;2023-03-02T02:00:38;1.73;;;0.60;;
12122;SDS011;6125;59.628;17.852;2023-03-02T02:03:08;0.40;;;0.40;;
12122;SDS011;6125;59.628;17.852;2023-03-02T02:05:39;0.67;;;0.50;;
12122;SDS011;6125;59.628;17.852;2023-03-02T02:08:08;0.40;;;0.40;;
12122;SDS011;6125;59.628;17.852;2023-03-02T02:10:37;0.80;;;0.50;;
12122;SDS011;6125;59.628;17.852;2023-03-02T02:13:05;0.63;;;0.60;;
12122;SDS011;6125;59.628;17.852;2023-03-02T02:15:34;0.40;;;0.40;;
12122;SDS011;6125;59.628;17.852;2023-03-02T02:18:02;1.43;;;0.70;;
12122;SDS011;6125;59.628;17.852;2023-03-02T02:20:31;0.30;;;0.30;;
12122;SDS011;6125;59.628;17.852;2023-03-02T02:23:05;0.50;;;0.50;;
12122;SDS011;6125;59.628;17.852;2023-03-02T02:28:24;0.50;;;0.50;;
12122;SDS011;6125;59.628;17.852;2023-03-02T02:30:56;0.50;;;0.50;;
12122;SDS011;6125;59.628;17.852;2023-03-02T02:33:29;0.87;;;0.63;;
12122;SDS011;6125;59.628;17.852;2023-03-02T02:36:00;2.13;;;0.60;;
12122;SDS011;6125;59.628;17.852;2023-03-02T02:38:30;0.30;;;0.30;;
12122;SDS011;6125;59.628;17.852;2023-03-02T02:41:00;0.73;;;0.60;;
12122;SDS011;6125;59.628;17.852;2023-03-02T02:43:29;0.40;;;0.40;;
12122;SDS011;6125;59.628;17.852;2023-03-02T02:45:57;0.53;;;0.53;;
12122;SDS011;6125;59.628;17.852;2023-03-02T02:48:26;0.57;;;0.57;;
12122;SDS011;6125;59.628;17.852;2023-03-02T02:50:56;0.50;;;0.50;;
12122;SDS011;6125;59.628;17.852;2023-03-02T02:53:28;0.90;;;0.60;;
12122;SDS011;6125;59.628;17.852;2023-03-02T02:56:01;1.43;;;0.43;;
12122;SDS011;6125;59.628;17.852;2023-03-02T02:58:32;0.40;;;0.40;;
12122;SDS011;6125;59.628;17.852;2023-03-02T03:01:03;0.43;;;0.43;;
12122;SDS011;6125;59.628;17.852;2023-03-02T03:03:32;0.40;;;0.40;;
12122;SDS011;6125;59.628;17.852;2023-03-02T03:06:02;1.10;;;0.60;;
12122;SDS011;6125;59.628;17.852;2023-03-02T03:08:43;0.50;;;0.50;;
12122;SDS011;6125;59.628;17.852;2023-03-02T03:11:19;0.70;;;0.70;;
12122;SDS011;6125;59.628;17.852;2023-03-02T03:13:49;0.60;;;0.60;;
12122;SDS011;6125;59.628;17.852;2023-03-02T03:16:20;1.23;;;0.70;;
12122;SDS011;6125;59.628;17.852;2023-03-02T03:18:52;0.73;;;0.73;;
12122;SDS011;6125;59.628;17.852;2023-03-02T03:21:20;0.90;;;0.80;;
12122;SDS011;6125;59.628;17.852;2023-03-02T03:23:47;0.87;;;0.70;;
12122;SDS011;6125;59.628;17.852;2023-03-02T03:26:14;0.60;;;0.60;;
12122;SDS011;6125;59.628;17.852;2023-03-02T03:28:43;0.70;;;0.70;;
12122;SDS011;6125;59.628;17.852;2023-03-02T03:31:10;2.57;;;0.93;;
12122;SDS011;6125;59.628;17.852;2023-03-02T03:33:37;1.17;;;0.50;;
12122;SDS011;6125;59.628;17.852;2023-03-02T03:36:04;0.53;;;0.53;;
12122;SDS011;6125;59.628;17.852;2023-03-02T03:38:33;1.70;;;0.97;;
12122;SDS011;6125;59.628;17.852;2023-03-02T03:41:00;0.70;;;0.70;;
12122;SDS011;6125;59.628;17.852;2023-03-02T03:43:27;0.60;;;0.60;;
12122;SDS011;6125;59.628;17.852;2023-03-02T03:45:55;1.00;;;0.90;;
12122;SDS011;6125;59.628;17.852;2023-03-02T03:48:22;0.70;;;0.70;;
12122;SDS011;6125;59.628;17.852;2023-03-02T03:50:49;0.97;;;0.70;;
12122;SDS011;6125;59.628;17.852;2023-03-02T03:53:17;0.70;;;0.70;;
12122;SDS011;6125;59.628;17.852;2023-03-02T03:55:44;0.77;;;0.77;;
12122;SDS011;6125;59.628;17.852;2023-03-02T03:58:11;0.83;;;0.53;;
12122;SDS011;6125;59.628;17.852;2023-03-02T04:00:38;0.70;;;0.70;;
12122;SDS011;6125;59.628;17.852;2023-03-02T04:03:06;0.53;;;0.40;;
12122;SDS011;6125;59.628;17.852;2023-03-02T04:05:33;1.50;;;0.90;;
12122;SDS011;6125;59.628;17.852;2023-03-02T04:08:00;0.60;;;0.60;;
12122;SDS011;6125;59.628;17.852;2023-03-02T04:10:27;0.90;;;0.80;;
12122;SDS011;6125;59.628;17.852;2023-03-02T04:12:54;1.10;;;0.73;;
12122;SDS011;6125;59.628;17.852;2023-03-02T04:15:22;0.60;;;0.60;;
12122;SDS011;6125;59.628;17.852;2023-03-02T04:17:49;0.90;;;0.80;;
12122;SDS011;6125;59.628;17.852;2023-03-02T04:20:18;1.03;;;0.70;;
12122;SDS011;6125;59.628;17.852;2023-03-02T04:22:47;0.70;;;0.50;;
12122;SDS011;6125;59.628;17.852;2023-03-02T04:25:16;1.93;;;0.70;;
12122;SDS011;6125;59.628;17.852;2023-03-02T04:27:45;1.50;;;0.77;;
12122;SDS011;6125;59.628;17.852;2023-03-02T04:30:13;0.57;;;0.57;;
12122;SDS011;6125;59.628;17.852;2023-03-02T04:32:41;0.83;;;0.80;;
12122;SDS011;6125;59.628;17.852;2023-03-02T04:35:09;0.60;;;0.60;;
12122;SDS011;6125;59.628;17.852;2023-03-02T04:37:44;0.60;;;0.60;;
12122;SDS011;6125;59.628;17.852;2023-03-02T04:40:12;1.00;;;0.90;;
12122;SDS011;6125;59.628;17.852;2023-03-02T04:42:40;0.70;;;0.70;;
12122;SDS011;6125;59.628;17.852;2023-03-02T04:45:09;0.83;;;0.70;;
12122;SDS011;6125;59.628;17.852;2023-03-02T04:47:36;1.60;;;0.80;;
12122;SDS011;6125;59.628;17.852;2023-03-02T04:50:04;0.57;;;0.57;;
12122;SDS011;6125;59.628;17.852;2023-03-02T04:52:32;0.93;;;0.93;;
12122;SDS011;6125;59.628;17.852;2023-03-02T04:55:00;2.00;;;0.70;;
12122;SDS011;6125;59.628;17.852;2023-03-02T04:57:27;0.50;;;0.50;;
12122;SDS011;6125;59.628;17.852;2023-03-02T04:59:54;0.60;;;0.60;;
12122;SDS011;6125;59.628;17.852;2023-03-02T05:02:21;1.77;;;0.80;;
12122;SDS011;6125;59.628;17.852;2023-03-02T05:04:48;0.50;;;0.50;;
12122;SDS011;6125;59.628;17.852;2023-03-02T05:07:15;1.40;;;0.67;;
12122;SDS011;6125;59.628;17.852;2023-03-02T05:09:42;1.60;;;0.70;;
12122;SDS011;6125;59.628;17.852;2023-03-02T05:12:11;0.90;;;0.90;;
12122;SDS011;6125;59.628;17.852;2023-03-02T05:14:38;2.23;;;0.80;;
12122;SDS011;6125;59.628;17.852;2023-03-02T05:17:05;0.67;;;0.60;;
12122;SDS011;6125;59.628;17.852;2023-03-02T05:19:32;0.93;;;0.60;;
12122;SDS011;6125;59.628;17.852;2023-03-02T05:21:59;0.80;;;0.80;;
12122;SDS011;6125;59.628;17.852;2023-03-02T05:24:26;1.27;;;0.73;;
12122;SDS011;6125;59.628;17.852;2023-03-02T05:26:53;2.67;;;0.80;;
12122;SDS011;6125;59.628;17.852;2023-03-02T05:29:22;1.20;;;0.80;;
12122;SDS011;6125;59.628;17.852;2023-03-02T05:31:49;4.10;;;0.90;;
12122;SDS011;6125;59.628;17.852;2023-03-02T05:34:16;0.73;;;0.73;;
12122;SDS011;6125;59.628;17.852;2023-03-02T05:36:43;1.77;;;1.30;;
12122;SDS011;6125;59.628;17.852;2023-03-02T05:39:11;5.23;;;1.13;;
12122;SDS011;6125;59.628;17.852;2023-03-02T05:41:39;2.33;;;1.30;;
12122;SDS011;6125;59.628;17.852;2023-03-02T05:44:06;1.70;;;1.23;;
12122;SDS011;6125;59.628;17.852;2023-03-02T05:46:37;1.67;;;1.23;;
12122;SDS011;6125;59.628;17.852;2023-03-02T05:49:04;3.13;;;1.33;;
12122;SDS011;6125;59.628;17.852;2023-03-02T05:51:31;1.77;;;1.20;;
12122;SDS011;6125;59.628;17.852;2023-03-02T05:53:58;2.20;;;1.30;;
12122;SDS011;6125;59.628;17.852;2023-03-02T05:56:25;1.57;;;1.27;;
12122;SDS011;6125;59.628;17.852;2023-03-02T05:58:52;1.83;;;1.10;;
12122;SDS011;6125;59.628;17.852;2023-03-02T06:01:20;1.20;;;0.90;;
12122;SDS011;6125;59.628;17.852;2023-03-02T06:03:48;1.50;;;0.90;;
12122;SDS011;6125;59.628;17.852;2023-03-02T06:06:15;1.57;;;1.20;;
12122;SDS011;6125;59.628;17.852;2023-03-02T06:08:43;4.97;;;1.87;;
12122;SDS011;6125;59.628;17.852;2023-03-02T06:11:10;1.43;;;0.90;;
12122;SDS011;6125;59.628;17.852;2023-03-02T06:13:38;1.13;;;0.60;;
12122;SDS011;6125;59.628;17.852;2023-03-02T06:16:05;2.13;;;0.87;;
12122;SDS011;6125;59.628;17.852;2023-03-02T06:18:33;3.03;;;1.10;;
12122;SDS011;6125;59.628;17.852;2023-03-02T06:21:01;2.60;;;1.20;;
12122;SDS011;6125;59.628;17.852;2023-03-02T06:23:35;2.40;;;0.70;;
12122;SDS011;6125;59.628;17.852;2023-03-02T06:26:06;1.47;;;1.03;;
12122;SDS011;6125;59.628;17.852;2023-03-02T06:28:33;1.57;;;1.10;;
12122;SDS011;6125;59.628;17.852;2023-03-02T06:31:00;0.90;;;0.70;;
12122;SDS011;6125;59.628;17.852;2023-03-02T06:33:27;1.73;;;1.00;;
12122;SDS011;6125;59.628;17.852;2023-03-02T06:35:55;1.83;;;0.80;;
12122;SDS011;6125;59.628;17.852;2023-03-02T06:38:23;1.83;;;0.90;;
12122;SDS011;6125;59.628;17.852;2023-03-02T06:40:50;0.90;;;0.80;;
12122;SDS011;6125;59.628;17.852;2023-03-02T06:43:17;4.17;;;1.07;;
12122;SDS011;6125;59.628;17.852;2023-03-02T06:45:44;1.80;;;0.90;;
12122;SDS011;6125;59.628;17.852;2023-03-02T06:48:11;4.53;;;1.03;;
12122;SDS011;6125;59.628;17.852;2023-03-02T06:50:38;1.67;;;0.77;;
12122;SDS011;6125;59.628;17.852;2023-03-02T06:53:05;2.50;;;0.90;;
12122;SDS011;6125;59.628;17.852;2023-03-02T06:55:34;2.00;;;0.60;;
12122;SDS011;6125;59.628;17.852;2023-03-02T06:58:01;4.90;;;1.33;;
12122;SDS011;6125;59.628;17.852;2023-03-02T07:00:28;3.83;;;1.20;;
12122;SDS011;6125;59.628;17.852;2023-03-02T07:02:55;1.17;;;0.83;;
12122;SDS011;6125;59.628;17.852;2023-03-02T07:05:22;2.73;;;0.87;;
12122;SDS011;6125;59.628;17.852;2023-03-02T07:07:50;1.87;;;0.70;;
12122;SDS011;6125;59.628;17.852;2023-03-02T07:10:17;1.57;;;1.10;;
12122;SDS011;6125;59.628;17.852;2023-03-02T07:12:45;1.20;;;0.83;;
12122;SDS011;6125;59.628;17.852;2023-03-02T07:15:13;1.37;;;0.70;;
12122;SDS011;6125;59.628;17.852;2023-03-02T07:17:42;1.17;;;0.80;;
12122;SDS011;6125;59.628;17.852;2023-03-02T07:20:10;2.80;;;1.00;;
12122;SDS011;6125;59.628;17.852;2023-03-02T07:22:38;2.60;;;0.70;;
12122;SDS011;6125;59.628;17.852;2023-03-02T07:25:06;1.57;;;0.70;;
12122;SDS011;6125;59.628;17.852;2023-03-02T07:27:34;3.13;;;1.30;;
12122;SDS011;6125;59.628;17.852;2023-03-02T07:30:03;4.37;;;1.13;;
12122;SDS011;6125;59.628;17.852;2023-03-02T07:32:31;3.60;;;1.10;;
12122;SDS011;6125;59.628;17.852;2023-03-02T07:34:58;4.10;;;1.30;;
12122;SDS011;6125;59.628;17.852;2023-03-02T07:37:25;3.17;;;0.90;;
12122;SDS011;6125;59.628;17.852;2023-03-02T07:39:52;1.80;;;0.93;;
12122;SDS011;6125;59.628;17.852;2023-03-02T07:42:19;1.63;;;1.07;;
12122;SDS011;6125;59.628;17.852;2023-03-02T07:44:46;2.93;;;1.30;;
12122;SDS011;6125;59.628;17.852;2023-03-02T07:47:15;3.20;;;1.00;;
12122;SDS011;6125;59.628;17.852;2023-03-02T07:49:42;1.10;;;1.00;;
12122;SDS011;6125;59.628;17.852;2023-03-02T07:52:09;3.87;;;1.67;;
12122;SDS011;6125;59.628;17.852;2023-03-02T07:54:36;5.47;;;1.53;;
12122;SDS011;6125;59.628;17.852;2023-03-02T07:57:03;3.90;;;1.10;;
12122;SDS011;6125;59.628;17.852;2023-03-02T07:59:30;2.67;;;1.10;;
12122;SDS011;6125;59.628;17.852;2023-03-02T08:01:57;1.80;;;1.33;;
12122;SDS011;6125;59.628;17.852;2023-03-02T08:04:26;3.03;;;1.10;;
12122;SDS011;6125;59.628;17.852;2023-03-02T08:06:53;2.33;;;0.97;;
12122;SDS011;6125;59.628;17.852;2023-03-02T08:09:20;4.23;;;1.20;;
12122;SDS011;6125;59.628;17.852;2023-03-02T08:11:47;1.70;;;0.70;;
12122;SDS011;6125;59.628;17.852;2023-03-02T08:14:14;3.13;;;1.27;;
12122;SDS011;6125;59.628;17.852;2023-03-02T08:16:41;1.47;;;0.80;;
12122;SDS011;6125;59.628;17.852;2023-03-02T08:19:08;2.63;;;0.90;;
12122;SDS011;6125;59.628;17.852;2023-03-02T08:21:36;2.37;;;0.90;;
12122;SDS011;6125;59.628;17.852;2023-03-02T08:24:03;5.43;;;1.17;;
12122;SDS011;6125;59.628;17.852;2023-03-02T08:26:30;1.77;;;0.93;;
12122;SDS011;6125;59.628;17.852;2023-03-02T08:28:58;1.50;;;0.97;;
12122;SDS011;6125;59.628;17.852;2023-03-02T08:31:25;3.47;;;1.03;;
12122;SDS011;6125;59.628;17.852;2023-03-02T08:33:52;4.00;;;1.43;;
12122;SDS011;6125;59.628;17.852;2023-03-02T08:36:19;4.77;;;1.40;;
12122;SDS011;6125;59.628;17.852;2023-03-02T08:38:48;5.60;;;1.23;;
12122;SDS011;6125;59.628;17.852;2023-03-02T08:41:16;4.67;;;1.37;;
12122;SDS011;6125;59.628;17.852;2023-03-02T08:43:45;2.87;;;1.40;;
12122;SDS011;6125;59.628;17.852;2023-03-02T08:46:13;5.93;;;1.30;;
12122;SDS011;6125;59.628;17.852;2023-03-02T08:48:41;4.70;;;1.37;;
12122;SDS011;6125;59.628;17.852;2023-03-02T08:51:09;2.53;;;1.10;;
12122;SDS011;6125;59.628;17.852;2023-03-02T08:53:40;5.63;;;1.20;;
12122;SDS011;6125;59.628;17.852;2023-03-02T08:56:17;4.93;;;1.60;;
12122;SDS011;6125;59.628;17.852;2023-03-02T08:58:45;3.37;;;1.40;;
12122;SDS011;6125;59.628;17.852;2023-03-02T09:01:13;5.40;;;1.27;;
12122;SDS011;6125;59.628;17.852;2023-03-02T09:03:42;2.60;;;1.00;;
12122;SDS011;6125;59.628;17.852;2023-03-02T09:06:09;4.60;;;1.30;;
12122;SDS011;6125;59.628;17.852;2023-03-02T09:08:36;5.23;;;1.27;;
12122;SDS011;6125;59.628;17.852;2023-03-02T09:11:03;3.53;;;1.20;;
12122;SDS011;6125;59.628;17.852;2023-03-02T09:13:32;1.70;;;1.23;;
12122;SDS011;6125;59.628;17.852;2023-03-02T09:15:59;6.70;;;1.30;;
12122;SDS011;6125;59.628;17.852;2023-03-02T09:18:27;4.73;;;1.37;;
12122;SDS011;6125;59.628;17.852;2023-03-02T09:20:54;4.37;;;1.47;;
12122;SDS011;6125;59.628;17.852;2023-03-02T09:23:23;5.37;;;1.50;;
12122;SDS011;6125;59.628;17.852;2023-03-02T09:25:51;4.70;;;1.40;;
12122;SDS011;6125;59.628;17.852;2023-03-02T09:28:19;5.57;;;1.53;;
12122;SDS011;6125;59.628;17.852;2023-03-02T09:30:48;4.20;;;1.00;;
12122;SDS011;6125;59.628;17.852;2023-03-02T09:33:16;3.23;;;1.17;;
12122;SDS011;6125;59.628;17.852;2023-03-02T09:35:44;3.07;;;1.13;;
12122;SDS011;6125;59.628;17.852;2023-03-02T09:38:11;3.33;;;1.10;;
12122;SDS011;6125;59.628;17.852;2023-03-02T09:40:46;4.67;;;1.20;;
12122;SDS011;6125;59.628;17.852;2023-03-02T09:43:28;4.23;;;1.37;;
12122;SDS011;6125;59.628;17.852;2023-03-02T09:46:08;4.10;;;1.20;;
12122;SDS011;6125;59.628;17.852;2023-03-02T09:48:44;3.20;;;1.30;;
12122;SDS011;6125;59.628;17.852;2023-03-02T09:51:30;5.20;;;1.40;;
12122;SDS011;6125;59.628;17.852;2023-03-02T09:54:02;4.97;;;1.47;;
12122;SDS011;6125;59.628;17.852;2023-03-02T09:56:33;6.97;;;2.07;;
12122;SDS011;6125;59.628;17.852;2023-03-02T09:59:04;5.57;;;1.40;;
12122;SDS011;6125;59.628;17.852;2023-03-02T10:01:39;2.93;;;0.93;;
12122;SDS011;6125;59.628;17.852;2023-03-02T10:04:14;5.00;;;1.77;;
12122;SDS011;6125;59.628;17.852;2023-03-02T10:06:46;4.87;;;1.50;;
12122;SDS011;6125;59.628;17.852;2023-03-02T10:09:17;4.30;;;1.10;;
12122;SDS011;6125;59.628;17.852;2023-03-02T10:11:48;3.93;;;1.53;;
12122;SDS011;6125;59.628;17.852;2023-03-02T10:14:28;4.83;;;1.30;;
12122;SDS011;6125;59.628;17.852;2023-03-02T10:17:04;3.03;;;1.27;;
12122;SDS011;6125;59.628;17.852;2023-03-02T10:19:45;7.23;;;1.30;;
12122;SDS011;6125;59.628;17.852;2023-03-02T10:22:19;4.47;;;1.20;;
12122;SDS011;6125;59.628;17.852;2023-03-02T10:24:54;6.30;;;1.43;;
12122;SDS011;6125;59.628;17.852;2023-03-02T10:27:31;3.10;;;1.40;;
12122;SDS011;6125;59.628;17.852;2023-03-02T10:30:04;3.20;;;1.30;;
12122;SDS011;6125;59.628;17.852;2023-03-02T10:32:44;4.70;;;1.13;;
12122;SDS011;6125;59.628;17.852;2023-03-02T10:35:15;3.03;;;1.20;;
12122;SDS011;6125;59.628;17.852;2023-03-02T10:37:44;5.37;;;1.23;;
12122;SDS011;6125;59.628;17.852;2023-03-02T10:40:16;1.83;;;0.90;;
12122;SDS011;6125;59.628;17.852;2023-03-02T10:42:54;5.40;;;1.53;;
12122;SDS011;6125;59.628;17.852;2023-03-02T10:45:23;3.30;;;1.17;;
12122;SDS011;6125;59.628;17.852;2023-03-02T10:48:01;2.67;;;1.00;;
12122;SDS011;6125;59.628;17.852;2023-03-02T10:50:29;4.07;;;1.30;;
12122;SDS011;6125;59.628;17.852;2023-03-02T10:52:56;2.77;;;1.20;;
12122;SDS011;6125;59.628;17.852;2023-03-02T10:55:23;4.17;;;2.07;;
12122;SDS011;6125;59.628;17.852;2023-03-02T10:58:01;3.73;;;0.97;;
12122;SDS011;6125;59.628;17.852;2023-03-02T11:00:30;2.33;;;1.10;;
12122;SDS011;6125;59.628;17.852;2023-03-02T11:02:59;2.20;;;1.13;;
12122;SDS011;6125;59.628;17.852;2023-03-02T11:05:29;1.90;;;1.03;;
12122;SDS011;6125;59.628;17.852;2023-03-02T11:07:58;5.33;;;1.17;;
12122;SDS011;6125;59.628;17.852;2023-03-02T11:10:27;4.57;;;1.30;;
12122;SDS011;6125;59.628;17.852;2023-03-02T11:12:56;2.03;;;1.40;;
12122;SDS011;6125;59.628;17.852;2023-03-02T11:15:26;3.47;;;1.10;;
12122;SDS011;6125;59.628;17.852;2023-03-02T11:18:02;2.97;;;1.03;;
12122;SDS011;6125;59.628;17.852;2023-03-02T11:20:33;4.10;;;1.10;;
12122;SDS011;6125;59.628;17.852;2023-03-02T11:25:51;4.13;;;0.80;;
12122;SDS011;6125;59.628;17.852;2023-03-02T11:28:35;1.73;;;0.97;;
12122;SDS011;6125;59.628;17.852;2023-03-02T11:31:10;1.97;;;1.10;;
12122;SDS011;6125;59.628;17.852;2023-03-02T11:33:53;2.20;;;0.80;;
12122;SDS011;6125;59.628;17.852;2023-03-02T11:36:29;1.67;;;1.10;;
12122;SDS011;6125;59.628;17.852;2023-03-02T11:39:05;2.30;;;1.00;;
12122;SDS011;6125;59.628;17.852;2023-03-02T11:41:37;4.70;;;1.10;;
12122;SDS011;6125;59.628;17.852;2023-03-02T11:44:08;2.17;;;1.00;;
12122;SDS011;6125;59.628;17.852;2023-03-02T11:46:40;6.97;;;0.93;;
12122;SDS011;6125;59.628;17.852;2023-03-02T11:49:12;9.43;;;1.30;;
12122;SDS011;6125;59.628;17.852;2023-03-02T11:51:46;3.47;;;1.63;;
12122;SDS011;6125;59.628;17.852;2023-03-02T11:54:24;1.17;;;0.83;;
12122;SDS011;6125;59.628;17.852;2023-03-02T11:56:59;2.17;;;0.90;;
12122;SDS011;6125;59.628;17.852;2023-03-02T11:59:26;4.07;;;1.40;;
12122;SDS011;6125;59.628;17.852;2023-03-02T12:01:54;4.97;;;1.10;;
12122;SDS011;6125;59.628;17.852;2023-03-02T12:04:28;5.10;;;1.10;;
12122;SDS011;6125;59.628;17.852;2023-03-02T12:06:58;5.23;;;1.23;;
12122;SDS011;6125;59.628;17.852;2023-03-02T12:09:30;2.17;;;1.40;;
12122;SDS011;6125;59.628;17.852;2023-03-02T12:12:09;4.50;;;1.43;;
12122;SDS011;6125;59.628;17.852;2023-03-02T12:18:14;3.17;;;1.13;;
12122;SDS011;6125;59.628;17.852;2023-03-02T12:21:00;4.77;;;1.40;;
12122;SDS011;6125;59.628;17.852;2023-03-02T12:23:29;5.93;;;1.33;;
12122;SDS011;6125;59.628;17.852;2023-03-02T12:26:02;5.10;;;1.33;;
12122;SDS011;6125;59.628;17.852;2023-03-02T12:28:33;2.97;;;0.93;;
12122;SDS011;6125;59.628;17.852;2023-03-02T12:31:06;6.33;;;1.33;;
12122;SDS011;6125;59.628;17.852;2023-03-02T12:33:42;3.30;;;1.30;;
12122;SDS011;6125;59.628;17.852;2023-03-02T12:36:15;2.73;;;1.20;;
12122;SDS011;6125;59.628;17.852;2023-03-02T12:38:50;4.50;;;1.20;;
12122;SDS011;6125;59.628;17.852;2023-03-02T12:41:30;6.80;;;1.20;;
12122;SDS011;6125;59.628;17.852;2023-03-02T12:44:13;7.03;;;1.50;;
12122;SDS011;6125;59.628;17.852;2023-03-02T12:46:48;2.23;;;1.10;;
12122;SDS011;6125;59.628;17.852;2023-03-02T12:49:20;3.97;;;1.67;;
12122;SDS011;6125;59.628;17.852;2023-03-02T12:51:58;4.37;;;1.30;;
12122;SDS011;6125;59.628;17.852;2023-03-02T12:54:26;3.17;;;1.03;;
12122;SDS011;6125;59.628;17.852;2023-03-02T12:57:01;3.70;;;1.40;;
12122;SDS011;6125;59.628;17.852;2023-03-02T12:59:32;2.97;;;1.40;;
12122;SDS011;6125;59.628;17.852;2023-03-02T13:02:04;2.10;;;1.10;;
12122;SDS011;6125;59.628;17.852;2023-03-02T13:04:42;3.43;;;1.37;;
12122;SDS011;6125;59.628;17.852;2023-03-02T13:07:18;4.17;;;1.30;;
12122;SDS011;6125;59.628;17.852;2023-03-02T13:09:49;6.27;;;1.27;;
12122;SDS011;6125;59.628;17.852;2023-03-02T13:12:18;3.60;;;1.27;;
12122;SDS011;6125;59.628;17.852;2023-03-02T13:14:46;2.00;;;0.90;;
12122;SDS011;6125;59.628;17.852;2023-03-02T13:17:21;4.93;;;1.57;;
12122;SDS011;6125;59.628;17.852;2023-03-02T13:19:49;4.17;;;1.47;;
12122;SDS011;6125;59.628;17.852;2023-03-02T13:22:18;4.27;;;1.23;;
12122;SDS011;6125;59.628;17.852;2023-03-02T13:24:48;3.73;;;1.20;;
12122;SDS011;6125;59.628;17.852;2023-03-02T13:27:20;2.17;;;1.37;;
12122;SDS011;6125;59.628;17.852;2023-03-02T13:29:49;3.70;;;1.20;;
12122;SDS011;6125;59.628;17.852;2023-03-02T13:32:21;5.40;;;1.53;;
12122;SDS011;6125;59.628;17.852;2023-03-02T13:34:50;2.50;;;1.30;;
12122;SDS011;6125;59.628;17.852;2023-03-02T13:37:26;4.27;;;1.40;;
12122;SDS011;6125;59.628;17.852;2023-03-02T13:39:59;2.60;;;1.13;;
12122;SDS011;6125;59.628;17.852;2023-03-02T13:42:33;2.60;;;1.20;;
12122;SDS011;6125;59.628;17.852;2023-03-02T13:45:09;2.10;;;1.10;;
12122;SDS011;6125;59.628;17.852;2023-03-02T13:47:46;6.07;;;1.37;;
12122;SDS011;6125;59.628;17.852;2023-03-02T13:50:16;2.73;;;0.90;;
12122;SDS011;6125;59.628;17.852;2023-03-02T13:52:45;2.50;;;0.97;;
12122;SDS011;6125;59.628;17.852;2023-03-02T13:55:13;2.53;;;1.20;;
12122;SDS011;6125;59.628;17.852;2023-03-02T13:57:41;2.63;;;1.17;;
12122;SDS011;6125;59.628;17.852;2023-03-02T14:00:11;3.63;;;1.40;;
12122;SDS011;6125;59.628;17.852;2023-03-02T14:02:41;2.57;;;1.20;;
12122;SDS011;6125;59.628;17.852;2023-03-02T14:05:13;3.77;;;1.37;;
12122;SDS011;6125;59.628;17.852;2023-03-02T14:07:46;3.50;;;0.97;;
12122;SDS011;6125;59.628;17.852;2023-03-02T14:10:14;3.50;;;1.00;;
12122;SDS011;6125;59.628;17.852;2023-03-02T14:12:44;4.17;;;1.20;;
12122;SDS011;6125;59.628;17.852;2023-03-02T14:15:18;1.40;;;0.93;;
12122;SDS011;6125;59.628;17.852;2023-03-02T14:17:45;3.60;;;1.30;;
12122;SDS011;6125;59.628;17.852;2023-03-02T14:20:13;2.40;;;1.60;;
12122;SDS011;6125;59.628;17.852;2023-03-02T14:22:43;2.37;;;1.10;;
12122;SDS011;6125;59.628;17.852;2023-03-02T14:25:11;2.43;;;1.10;;
12122;SDS011;6125;59.628;17.852;2023-03-02T14:27:39;4.33;;;1.10;;
12122;SDS011;6125;59.628;17.852;2023-03-02T14:30:11;1.43;;;0.90;;
12122;SDS011;6125;59.628;17.852;2023-03-02T14:32:41;1.77;;;1.37;;
12122;SDS011;6125;59.628;17.852;2023-03-02T14:35:09;3.27;;;1.50;;
12122;SDS011;6125;59.628;17.852;2023-03-02T14:37:38;2.17;;;1.30;;
12122;SDS011;6125;59.628;17.852;2023-03-02T14:42:46;1.40;;;0.90;;
12122;SDS011;6125;59.628;17.852;2023-03-02T14:45:15;3.27;;;1.20;;
12122;SDS011;6125;59.628;17.852;2023-03-02T14:47:43;1.87;;;1.10;;
12122;SDS011;6125;59.628;17.852;2023-03-02T14:50:10;3.30;;;1.37;;
12122;SDS011;6125;59.628;17.852;2023-03-02T14:52:39;4.30;;;0.97;;
12122;SDS011;6125;59.628;17.852;2023-03-02T14:55:11;3.47;;;1.30;;
12122;SDS011;6125;59.628;17.852;2023-03-02T14:57:43;1.20;;;1.00;;
12122;SDS011;6125;59.628;17.852;2023-03-02T15:00:13;2.53;;;1.00;;
12122;SDS011;6125;59.628;17.852;2023-03-02T15:02:40;3.10;;;1.23;;
12122;SDS011;6125;59.628;17.852;2023-03-02T15:05:08;1.63;;;1.17;;
12122;SDS011;6125;59.628;17.852;2023-03-02T15:07:35;3.73;;;1.83;;
12122;SDS011;6125;59.628;17.852;2023-03-02T15:10:03;6.37;;;1.20;;
12122;SDS011;6125;59.628;17.852;2023-03-02T15:12:31;3.80;;;1.07;;
12122;SDS011;6125;59.628;17.852;2023-03-02T15:14:59;3.37;;;1.00;;